sensor_id;sensor_type;location;lat;lon;timestamp;temperature;humidity
79467;SHT30;68933;49.726;9.226;2023-11-19T00:01:35;9.2;83
79467;SHT30;68933;49.726;9.226;2023-11-19T00:03:48;9.2;83
79467;SHT30;68933;49.726;9.226;2023-11-19T00:06:01;9.2;83
79467;SHT30;68933;49.726;9.226;2023-11-19T00:08:14;9.2;83
79467;SHT30;68933;49.726;9.226;2023-11-19T00:10:27;9.3;83
79467;SHT30;68933;49.726;9.226;2023-11-19T00:12:41;9.3;83
79467;SHT30;68933;49.726;9.226;2023-11-19T00:14:53;9.3;83
79467;SHT30;68933;49.726;9.226;2023-11-19T00:17:06;9.3;83
79467;SHT30;68933;49.726;9.226;2023-11-19T00:19:19;9.4;83
79467;SHT30;68933;49.726;9.226;2023-11-19T00:21:32;9.4;83
79467;SHT30;68933;49.726;9.226;2023-11-19T00:23:45;9.4;83
79467;SHT30;68933;49.726;9.226;2023-11-19T00:29:34;9.4;83
79467;SHT30;68933;49.726;9.226;2023-11-19T00:31:46;9.5;83
79467;SHT30;68933;49.726;9.226;2023-11-19T00:33:59;9.5;83
79467;SHT30;68933;49.726;9.226;2023-11-19T00:36:12;9.5;83
79467;SHT30;68933;49.726;9.226;2023-11-19T00:38:25;9.5;83
79467;SHT30;68933;49.726;9.226;2023-11-19T00:40:38;9.5;83
79467;SHT30;68933;49.726;9.226;2023-11-19T00:42:51;9.5;83
79467;SHT30;68933;49.726;9.226;2023-11-19T00:45:04;9.5;83
79467;SHT30;68933;49.726;9.226;2023-11-19T00:47:17;9.5;83
79467;SHT30;68933;49.726;9.226;2023-11-19T00:49:30;9.6;83
79467;SHT30;68933;49.726;9.226;2023-11-19T00:51:43;9.6;83
79467;SHT30;68933;49.726;9.226;2023-11-19T00:53:56;9.6;83
79467;SHT30;68933;49.726;9.226;2023-11-19T00:56:10;9.6;83
79467;SHT30;68933;49.726;9.226;2023-11-19T00:58:22;9.6;83
79467;SHT30;68933;49.726;9.226;2023-11-19T01:00:35;9.7;83
79467;SHT30;68933;49.726;9.226;2023-11-19T01:02:48;9.7;83
79467;SHT30;68933;49.726;9.226;2023-11-19T01:05:01;9.7;83
79467;SHT30;68933;49.726;9.226;2023-11-19T01:07:14;9.7;83
79467;SHT30;68933;49.726;9.226;2023-11-19T01:09:27;9.7;83
79467;SHT30;68933;49.726;9.226;2023-11-19T01:11:40;9.7;83
79467;SHT30;68933;49.726;9.226;2023-11-19T01:13:53;9.8;83
79467;SHT30;68933;49.726;9.226;2023-11-19T01:16:06;9.8;83
79467;SHT30;68933;49.726;9.226;2023-11-19T01:18:19;9.8;83
79467;SHT30;68933;49.726;9.226;2023-11-19T01:20:32;9.8;83
79467;SHT30;68933;49.726;9.226;2023-11-19T01:22:45;9.8;83
79467;SHT30;68933;49.726;9.226;2023-11-19T01:24:58;9.9;83
79467;SHT30;68933;49.726;9.226;2023-11-19T01:27:11;9.9;83
79467;SHT30;68933;49.726;9.226;2023-11-19T01:29:24;9.9;83
79467;SHT30;68933;49.726;9.226;2023-11-19T01:31:37;9.9;83
79467;SHT30;68933;49.726;9.226;2023-11-19T01:33:50;9.9;83
79467;SHT30;68933;49.726;9.226;2023-11-19T01:36:04;9.9;83
79467;SHT30;68933;49.726;9.226;2023-11-19T01:38:16;10;83
79467;SHT30;68933;49.726;9.226;2023-11-19T01:40:29;10;83
79467;SHT30;68933;49.726;9.226;2023-11-19T01:42:42;10;83
79467;SHT30;68933;49.726;9.226;2023-11-19T01:44:57;10;83
79467;SHT30;68933;49.726;9.226;2023-11-19T01:47:08;10;83
79467;SHT30;68933;49.726;9.226;2023-11-19T01:49:21;10;83
79467;SHT30;68933;49.726;9.226;2023-11-19T01:51:34;10;83
79467;SHT30;68933;49.726;9.226;2023-11-19T01:53:47;10.1;83
79467;SHT30;68933;49.726;9.226;2023-11-19T01:56:00;10.1;83
79467;SHT30;68933;49.726;9.226;2023-11-19T01:58:13;10.1;83
79467;SHT30;68933;49.726;9.226;2023-11-19T02:00:26;10.1;83
79467;SHT30;68933;49.726;9.226;2023-11-19T02:02:39;10.1;83
79467;SHT30;68933;49.726;9.226;2023-11-19T02:04:52;10.1;82
79467;SHT30;68933;49.726;9.226;2023-11-19T02:07:05;10.1;82
79467;SHT30;68933;49.726;9.226;2023-11-19T02:09:18;10.1;82
79467;SHT30;68933;49.726;9.226;2023-11-19T02:11:31;10.1;83
79467;SHT30;68933;49.726;9.226;2023-11-19T02:13:44;10.1;83
79467;SHT30;68933;49.726;9.226;2023-11-19T02:15:57;10.2;83
79467;SHT30;68933;49.726;9.226;2023-11-19T02:18:18;10.2;83
79467;SHT30;68933;49.726;9.226;2023-11-19T02:20:23;10.2;83
79467;SHT30;68933;49.726;9.226;2023-11-19T02:22:36;10.2;83
79467;SHT30;68933;49.726;9.226;2023-11-19T02:24:51;10.2;83
79467;SHT30;68933;49.726;9.226;2023-11-19T02:27:02;10.2;83
79467;SHT30;68933;49.726;9.226;2023-11-19T02:29:15;10.2;83
79467;SHT30;68933;49.726;9.226;2023-11-19T02:31:28;10.2;83
79467;SHT30;68933;49.726;9.226;2023-11-19T02:33:41;10.3;83
79467;SHT30;68933;49.726;9.226;2023-11-19T02:35:54;10.3;83
79467;SHT30;68933;49.726;9.226;2023-11-19T02:38:07;10.3;83
79467;SHT30;68933;49.726;9.226;2023-11-19T02:40:20;10.3;83
79467;SHT30;68933;49.726;9.226;2023-11-19T02:42:33;10.4;83
79467;SHT30;68933;49.726;9.226;2023-11-19T02:44:46;10.4;83
79467;SHT30;68933;49.726;9.226;2023-11-19T02:46:59;10.4;83
79467;SHT30;68933;49.726;9.226;2023-11-19T02:49:12;10.4;83
79467;SHT30;68933;49.726;9.226;2023-11-19T02:51:25;10.4;83
79467;SHT30;68933;49.726;9.226;2023-11-19T02:53:38;10.4;83
79467;SHT30;68933;49.726;9.226;2023-11-19T02:55:51;10.4;83
79467;SHT30;68933;49.726;9.226;2023-11-19T02:58:04;10.4;83
79467;SHT30;68933;49.726;9.226;2023-11-19T03:00:18;10.4;83
79467;SHT30;68933;49.726;9.226;2023-11-19T03:02:30;10.4;83
79467;SHT30;68933;49.726;9.226;2023-11-19T03:04:43;10.5;83
79467;SHT30;68933;49.726;9.226;2023-11-19T03:06:56;10.5;83
79467;SHT30;68933;49.726;9.226;2023-11-19T03:09:09;10.5;83
79467;SHT30;68933;49.726;9.226;2023-11-19T03:11:22;10.5;83
79467;SHT30;68933;49.726;9.226;2023-11-19T03:13:35;10.5;83
79467;SHT30;68933;49.726;9.226;2023-11-19T03:15:48;10.6;83
79467;SHT30;68933;49.726;9.226;2023-11-19T03:18:01;10.6;83
79467;SHT30;68933;49.726;9.226;2023-11-19T03:20:14;10.6;83
79467;SHT30;68933;49.726;9.226;2023-11-19T03:22:27;10.6;83
79467;SHT30;68933;49.726;9.226;2023-11-19T03:24:40;10.6;83
79467;SHT30;68933;49.726;9.226;2023-11-19T03:26:53;10.6;83
79467;SHT30;68933;49.726;9.226;2023-11-19T03:29:06;10.7;83
79467;SHT30;68933;49.726;9.226;2023-11-19T03:31:19;10.7;83
79467;SHT30;68933;49.726;9.226;2023-11-19T03:33:32;10.7;83
79467;SHT30;68933;49.726;9.226;2023-11-19T03:35:45;10.7;83
79467;SHT30;68933;49.726;9.226;2023-11-19T03:37:58;10.7;83
79467;SHT30;68933;49.726;9.226;2023-11-19T03:40:11;10.8;83
79467;SHT30;68933;49.726;9.226;2023-11-19T03:42:24;10.8;83
79467;SHT30;68933;49.726;9.226;2023-11-19T03:44:37;10.9;83
79467;SHT30;68933;49.726;9.226;2023-11-19T03:46:50;10.9;83
79467;SHT30;68933;49.726;9.226;2023-11-19T03:49:03;10.9;83
79467;SHT30;68933;49.726;9.226;2023-11-19T03:51:16;10.9;83
79467;SHT30;68933;49.726;9.226;2023-11-19T03:53:30;10.9;83
79467;SHT30;68933;49.726;9.226;2023-11-19T03:55:42;10.9;83
79467;SHT30;68933;49.726;9.226;2023-11-19T03:57:55;10.9;83
79467;SHT30;68933;49.726;9.226;2023-11-19T04:00:08;11;83
79467;SHT30;68933;49.726;9.226;2023-11-19T04:02:21;11;83
79467;SHT30;68933;49.726;9.226;2023-11-19T04:04:34;11;84
79467;SHT30;68933;49.726;9.226;2023-11-19T04:06:47;11;84
79467;SHT30;68933;49.726;9.226;2023-11-19T04:09:00;11.1;83
79467;SHT30;68933;49.726;9.226;2023-11-19T04:11:13;11.1;83
79467;SHT30;68933;49.726;9.226;2023-11-19T04:13:26;11.1;83
79467;SHT30;68933;49.726;9.226;2023-11-19T04:15:39;11.1;84
79467;SHT30;68933;49.726;9.226;2023-11-19T04:17:52;11.1;84
79467;SHT30;68933;49.726;9.226;2023-11-19T04:20:05;11.1;84
79467;SHT30;68933;49.726;9.226;2023-11-19T04:22:18;11.1;84
79467;SHT30;68933;49.726;9.226;2023-11-19T04:24:31;11.2;83
79467;SHT30;68933;49.726;9.226;2023-11-19T04:26:44;11.2;83
79467;SHT30;68933;49.726;9.226;2023-11-19T04:28:57;11.2;84
79467;SHT30;68933;49.726;9.226;2023-11-19T04:31:10;11.2;84
79467;SHT30;68933;49.726;9.226;2023-11-19T04:33:23;11.2;84
79467;SHT30;68933;49.726;9.226;2023-11-19T04:35:36;11.3;84
79467;SHT30;68933;49.726;9.226;2023-11-19T04:37:49;11.3;84
79467;SHT30;68933;49.726;9.226;2023-11-19T04:40:02;11.3;84
79467;SHT30;68933;49.726;9.226;2023-11-19T04:42:15;11.3;84
79467;SHT30;68933;49.726;9.226;2023-11-19T04:44:28;11.3;84
79467;SHT30;68933;49.726;9.226;2023-11-19T04:46:41;11.3;84
79467;SHT30;68933;49.726;9.226;2023-11-19T04:48:54;11.4;84
79467;SHT30;68933;49.726;9.226;2023-11-19T04:51:07;11.4;84
79467;SHT30;68933;49.726;9.226;2023-11-19T04:53:20;11.4;85
79467;SHT30;68933;49.726;9.226;2023-11-19T04:55:33;11.4;85
79467;SHT30;68933;49.726;9.226;2023-11-19T04:57:46;11.4;85
79467;SHT30;68933;49.726;9.226;2023-11-19T04:59:59;11.4;85
79467;SHT30;68933;49.726;9.226;2023-11-19T05:02:12;11.4;85
79467;SHT30;68933;49.726;9.226;2023-11-19T05:04:25;11.5;85
79467;SHT30;68933;49.726;9.226;2023-11-19T05:06:38;11.5;85
79467;SHT30;68933;49.726;9.226;2023-11-19T05:08:51;11.5;85
79467;SHT30;68933;49.726;9.226;2023-11-19T05:11:04;11.5;85
79467;SHT30;68933;49.726;9.226;2023-11-19T05:13:17;11.5;85
79467;SHT30;68933;49.726;9.226;2023-11-19T05:15:30;11.5;85
79467;SHT30;68933;49.726;9.226;2023-11-19T05:17:43;11.5;85
79467;SHT30;68933;49.726;9.226;2023-11-19T05:19:56;11.6;85
79467;SHT30;68933;49.726;9.226;2023-11-19T05:22:09;11.6;85
79467;SHT30;68933;49.726;9.226;2023-11-19T05:24:22;11.6;85
79467;SHT30;68933;49.726;9.226;2023-11-19T05:26:35;11.6;85
79467;SHT30;68933;49.726;9.226;2023-11-19T05:28:48;11.6;85
79467;SHT30;68933;49.726;9.226;2023-11-19T05:31:01;11.7;85
79467;SHT30;68933;49.726;9.226;2023-11-19T05:33:14;11.7;85
79467;SHT30;68933;49.726;9.226;2023-11-19T05:35:27;11.7;84
79467;SHT30;68933;49.726;9.226;2023-11-19T05:37:40;11.7;84
79467;SHT30;68933;49.726;9.226;2023-11-19T05:39:53;11.7;84
79467;SHT30;68933;49.726;9.226;2023-11-19T05:42:06;11.8;84
79467;SHT30;68933;49.726;9.226;2023-11-19T05:44:19;11.8;84
79467;SHT30;68933;49.726;9.226;2023-11-19T05:46:32;11.9;84
79467;SHT30;68933;49.726;9.226;2023-11-19T05:48:45;11.9;84
79467;SHT30;68933;49.726;9.226;2023-11-19T05:50:58;11.9;84
79467;SHT30;68933;49.726;9.226;2023-11-19T05:53:11;12;84
79467;SHT30;68933;49.726;9.226;2023-11-19T05:55:24;12;84
79467;SHT30;68933;49.726;9.226;2023-11-19T05:57:37;12;84
79467;SHT30;68933;49.726;9.226;2023-11-19T05:59:50;12;84
79467;SHT30;68933;49.726;9.226;2023-11-19T06:02:03;12;84
79467;SHT30;68933;49.726;9.226;2023-11-19T06:04:16;12;84
79467;SHT30;68933;49.726;9.226;2023-11-19T06:06:29;12;84
79467;SHT30;68933;49.726;9.226;2023-11-19T06:08:42;12.1;84
79467;SHT30;68933;49.726;9.226;2023-11-19T06:10:55;12.1;84
79467;SHT30;68933;49.726;9.226;2023-11-19T06:13:08;12.1;84
79467;SHT30;68933;49.726;9.226;2023-11-19T06:15:21;12.1;84
79467;SHT30;68933;49.726;9.226;2023-11-19T06:17:34;12.1;84
79467;SHT30;68933;49.726;9.226;2023-11-19T06:19:47;12.1;84
79467;SHT30;68933;49.726;9.226;2023-11-19T06:22:00;12.1;84
79467;SHT30;68933;49.726;9.226;2023-11-19T06:24:13;12.2;84
79467;SHT30;68933;49.726;9.226;2023-11-19T06:26:26;12.2;84
79467;SHT30;68933;49.726;9.226;2023-11-19T06:28:39;12.2;84
79467;SHT30;68933;49.726;9.226;2023-11-19T06:30:52;12.2;84
79467;SHT30;68933;49.726;9.226;2023-11-19T06:33:05;12.2;84
79467;SHT30;68933;49.726;9.226;2023-11-19T06:35:18;12.2;84
79467;SHT30;68933;49.726;9.226;2023-11-19T06:37:31;12.2;84
79467;SHT30;68933;49.726;9.226;2023-11-19T06:39:44;12.3;84
79467;SHT30;68933;49.726;9.226;2023-11-19T06:41:57;12.3;84
79467;SHT30;68933;49.726;9.226;2023-11-19T06:44:10;12.3;84
79467;SHT30;68933;49.726;9.226;2023-11-19T06:46:23;12.3;84
79467;SHT30;68933;49.726;9.226;2023-11-19T06:48:36;12.3;84
79467;SHT30;68933;49.726;9.226;2023-11-19T06:50:49;12.3;84
79467;SHT30;68933;49.726;9.226;2023-11-19T06:53:02;12.3;84
79467;SHT30;68933;49.726;9.226;2023-11-19T06:55:15;12.3;84
79467;SHT30;68933;49.726;9.226;2023-11-19T06:57:28;12.3;84
79467;SHT30;68933;49.726;9.226;2023-11-19T06:59:41;12.3;84
79467;SHT30;68933;49.726;9.226;2023-11-19T07:01:54;12.3;84
79467;SHT30;68933;49.726;9.226;2023-11-19T07:04:07;12.3;85
79467;SHT30;68933;49.726;9.226;2023-11-19T07:06:20;12.3;85
79467;SHT30;68933;49.726;9.226;2023-11-19T07:08:33;12.4;85
79467;SHT30;68933;49.726;9.226;2023-11-19T07:10:46;12.4;85
79467;SHT30;68933;49.726;9.226;2023-11-19T07:12:59;12.4;85
79467;SHT30;68933;49.726;9.226;2023-11-19T07:15:12;12.4;85
79467;SHT30;68933;49.726;9.226;2023-11-19T07:17:25;12.4;85
79467;SHT30;68933;49.726;9.226;2023-11-19T07:19:38;12.4;85
79467;SHT30;68933;49.726;9.226;2023-11-19T07:21:51;12.4;85
79467;SHT30;68933;49.726;9.226;2023-11-19T07:24:05;12.4;85
79467;SHT30;68933;49.726;9.226;2023-11-19T07:26:17;12.4;85
79467;SHT30;68933;49.726;9.226;2023-11-19T07:28:30;12.4;85
79467;SHT30;68933;49.726;9.226;2023-11-19T07:30:43;12.4;85
79467;SHT30;68933;49.726;9.226;2023-11-19T07:32:56;12.6;85
79467;SHT30;68933;49.726;9.226;2023-11-19T07:35:09;12.6;85
79467;SHT30;68933;49.726;9.226;2023-11-19T07:37:22;12.7;84
79467;SHT30;68933;49.726;9.226;2023-11-19T07:39:35;12.7;84
79467;SHT30;68933;49.726;9.226;2023-11-19T07:41:48;12.8;84
79467;SHT30;68933;49.726;9.226;2023-11-19T07:44:01;12.8;84
79467;SHT30;68933;49.726;9.226;2023-11-19T07:46:14;12.9;84
79467;SHT30;68933;49.726;9.226;2023-11-19T07:48:27;12.9;84
79467;SHT30;68933;49.726;9.226;2023-11-19T07:50:40;12.9;84
79467;SHT30;68933;49.726;9.226;2023-11-19T07:52:53;12.9;82
79467;SHT30;68933;49.726;9.226;2023-11-19T07:55:07;12.9;82
79467;SHT30;68933;49.726;9.226;2023-11-19T07:57:19;12.9;82
79467;SHT30;68933;49.726;9.226;2023-11-19T07:59:32;12.9;82
79467;SHT30;68933;49.726;9.226;2023-11-19T08:01:45;12.9;82
79467;SHT30;68933;49.726;9.226;2023-11-19T08:03:58;13;82
79467;SHT30;68933;49.726;9.226;2023-11-19T08:06:11;13;82
79467;SHT30;68933;49.726;9.226;2023-11-19T08:08:24;13.1;82
79467;SHT30;68933;49.726;9.226;2023-11-19T08:10:37;13.1;82
79467;SHT30;68933;49.726;9.226;2023-11-19T08:12:50;13.1;82
79467;SHT30;68933;49.726;9.226;2023-11-19T08:15:03;13.2;82
79467;SHT30;68933;49.726;9.226;2023-11-19T08:17:17;13.2;82
79467;SHT30;68933;49.726;9.226;2023-11-19T08:19:29;13.2;81
79467;SHT30;68933;49.726;9.226;2023-11-19T08:21:42;13.2;81
79467;SHT30;68933;49.726;9.226;2023-11-19T08:23:55;13.3;81
79467;SHT30;68933;49.726;9.226;2023-11-19T08:26:08;13.3;81
79467;SHT30;68933;49.726;9.226;2023-11-19T08:28:21;13.3;81
79467;SHT30;68933;49.726;9.226;2023-11-19T08:30:34;13.4;81
79467;SHT30;68933;49.726;9.226;2023-11-19T08:32:47;13.4;81
79467;SHT30;68933;49.726;9.226;2023-11-19T08:35:00;13.5;81
79467;SHT30;68933;49.726;9.226;2023-11-19T08:37:13;13.5;81
79467;SHT30;68933;49.726;9.226;2023-11-19T08:39:26;13.5;81
79467;SHT30;68933;49.726;9.226;2023-11-19T08:41:39;13.5;80
79467;SHT30;68933;49.726;9.226;2023-11-19T08:43:52;13.5;80
79467;SHT30;68933;49.726;9.226;2023-11-19T08:46:09;13.7;80
79467;SHT30;68933;49.726;9.226;2023-11-19T08:48:18;13.7;80
79467;SHT30;68933;49.726;9.226;2023-11-19T08:50:31;13.7;80
79467;SHT30;68933;49.726;9.226;2023-11-19T08:52:44;13.8;78
79467;SHT30;68933;49.726;9.226;2023-11-19T08:54:57;13.8;78
79467;SHT30;68933;49.726;9.226;2023-11-19T08:57:10;13.8;78
79467;SHT30;68933;49.726;9.226;2023-11-19T08:59:23;13.8;78
79467;SHT30;68933;49.726;9.226;2023-11-19T09:01:36;14;78
79467;SHT30;68933;49.726;9.226;2023-11-19T09:03:49;14;78
79467;SHT30;68933;49.726;9.226;2023-11-19T09:06:02;14;78
79467;SHT30;68933;49.726;9.226;2023-11-19T09:08:15;14.2;78
79467;SHT30;68933;49.726;9.226;2023-11-19T09:10:28;14.2;78
79467;SHT30;68933;49.726;9.226;2023-11-19T09:12:41;14.4;78
79467;SHT30;68933;49.726;9.226;2023-11-19T09:14:54;14.4;78
79467;SHT30;68933;49.726;9.226;2023-11-19T09:17:07;14.5;77
79467;SHT30;68933;49.726;9.226;2023-11-19T09:19:20;14.5;77
79467;SHT30;68933;49.726;9.226;2023-11-19T09:21:33;14.5;77
79467;SHT30;68933;49.726;9.226;2023-11-19T09:23:46;14.6;75
79467;SHT30;68933;49.726;9.226;2023-11-19T09:25:59;14.6;75
79467;SHT30;68933;49.726;9.226;2023-11-19T09:28:12;14.6;75
79467;SHT30;68933;49.726;9.226;2023-11-19T09:30:25;14.6;75
79467;SHT30;68933;49.726;9.226;2023-11-19T09:32:38;14.6;75
79467;SHT30;68933;49.726;9.226;2023-11-19T09:34:51;14.6;75
79467;SHT30;68933;49.726;9.226;2023-11-19T09:37:04;14.6;75
79467;SHT30;68933;49.726;9.226;2023-11-19T09:39:17;14.6;75
79467;SHT30;68933;49.726;9.226;2023-11-19T09:41:30;14.6;75
79467;SHT30;68933;49.726;9.226;2023-11-19T09:43:43;14.9;75
79467;SHT30;68933;49.726;9.226;2023-11-19T09:45:56;14.9;75
79467;SHT30;68933;49.726;9.226;2023-11-19T09:48:09;15;75
79467;SHT30;68933;49.726;9.226;2023-11-19T09:50:22;15;75
79467;SHT30;68933;49.726;9.226;2023-11-19T09:52:35;15.3;74
79467;SHT30;68933;49.726;9.226;2023-11-19T09:54:48;15.3;74
79467;SHT30;68933;49.726;9.226;2023-11-19T09:57:02;15.4;74
79467;SHT30;68933;49.726;9.226;2023-11-19T09:59:14;15.4;74
79467;SHT30;68933;49.726;9.226;2023-11-19T10:01:27;15.4;74
79467;SHT30;68933;49.726;9.226;2023-11-19T10:03:40;15.5;73
79467;SHT30;68933;49.726;9.226;2023-11-19T10:05:53;15.5;73
79467;SHT30;68933;49.726;9.226;2023-11-19T10:08:06;15.7;71
79467;SHT30;68933;49.726;9.226;2023-11-19T10:10:19;15.7;71
79467;SHT30;68933;49.726;9.226;2023-11-19T10:12:32;15.5;71
79467;SHT30;68933;49.726;9.226;2023-11-19T10:14:45;15.5;71
79467;SHT30;68933;49.726;9.226;2023-11-19T10:16:58;15.4;70
79467;SHT30;68933;49.726;9.226;2023-11-19T10:19:12;15.4;70
79467;SHT30;68933;49.726;9.226;2023-11-19T10:21:24;15.4;70
79467;SHT30;68933;49.726;9.226;2023-11-19T10:23:53;15.3;71
79467;SHT30;68933;49.726;9.226;2023-11-19T10:25:52;15.3;71
79467;SHT30;68933;49.726;9.226;2023-11-19T10:28:03;15.2;71
79467;SHT30;68933;49.726;9.226;2023-11-19T10:30:17;15.2;71
79467;SHT30;68933;49.726;9.226;2023-11-19T10:32:29;15.1;71
79467;SHT30;68933;49.726;9.226;2023-11-19T10:34:42;15.1;71
79467;SHT30;68933;49.726;9.226;2023-11-19T10:36:55;14.9;73
79467;SHT30;68933;49.726;9.226;2023-11-19T10:39:08;14.9;73
79467;SHT30;68933;49.726;9.226;2023-11-19T10:41:29;14.9;73
79467;SHT30;68933;49.726;9.226;2023-11-19T10:43:42;14.9;74
79467;SHT30;68933;49.726;9.226;2023-11-19T10:45:47;14.9;74
79467;SHT30;68933;49.726;9.226;2023-11-19T10:48:00;14.8;74
79467;SHT30;68933;49.726;9.226;2023-11-19T10:50:13;14.8;74
79467;SHT30;68933;49.726;9.226;2023-11-19T10:52:26;14.8;74
79467;SHT30;68933;49.726;9.226;2023-11-19T10:54:39;14.8;74
79467;SHT30;68933;49.726;9.226;2023-11-19T10:56:54;14.8;74
79467;SHT30;68933;49.726;9.226;2023-11-19T10:59:05;14.8;74
79467;SHT30;68933;49.726;9.226;2023-11-19T11:01:19;14.7;74
79467;SHT30;68933;49.726;9.226;2023-11-19T11:03:31;14.7;74
79467;SHT30;68933;49.726;9.226;2023-11-19T11:05:45;14.7;74
79467;SHT30;68933;49.726;9.226;2023-11-19T11:07:57;14.7;74
79467;SHT30;68933;49.726;9.226;2023-11-19T11:10:10;14.7;74
79467;SHT30;68933;49.726;9.226;2023-11-19T11:12:23;14.7;75
79467;SHT30;68933;49.726;9.226;2023-11-19T11:14:37;14.7;75
79467;SHT30;68933;49.726;9.226;2023-11-19T11:16:49;14.7;75
79467;SHT30;68933;49.726;9.226;2023-11-19T11:19:02;14.8;75
79467;SHT30;68933;49.726;9.226;2023-11-19T11:21:16;14.8;75
79467;SHT30;68933;49.726;9.226;2023-11-19T11:23:43;14.9;75
79467;SHT30;68933;49.726;9.226;2023-11-19T11:25:43;14.9;75
79467;SHT30;68933;49.726;9.226;2023-11-19T11:27:57;15;74
79467;SHT30;68933;49.726;9.226;2023-11-19T11:30:11;15;74
79467;SHT30;68933;49.726;9.226;2023-11-19T11:32:22;15;74
79467;SHT30;68933;49.726;9.226;2023-11-19T11:34:39;15.1;74
79467;SHT30;68933;49.726;9.226;2023-11-19T11:36:48;15.1;74
79467;SHT30;68933;49.726;9.226;2023-11-19T11:38:59;15.6;74
79467;SHT30;68933;49.726;9.226;2023-11-19T11:41:16;15.6;74
79467;SHT30;68933;49.726;9.226;2023-11-19T11:43:57;15.6;74
79467;SHT30;68933;49.726;9.226;2023-11-19T11:45:39;15.8;71
79467;SHT30;68933;49.726;9.226;2023-11-19T11:48:23;15.8;71
79467;SHT30;68933;49.726;9.226;2023-11-19T11:50:05;16;71
79467;SHT30;68933;49.726;9.226;2023-11-19T11:52:17;16;71
79467;SHT30;68933;49.726;9.226;2023-11-19T11:54:30;16;70
79467;SHT30;68933;49.726;9.226;2023-11-19T11:56:43;16;70
79467;SHT30;68933;49.726;9.226;2023-11-19T11:58:56;16;70
79467;SHT30;68933;49.726;9.226;2023-11-19T12:01:10;16.5;71
79467;SHT30;68933;49.726;9.226;2023-11-19T12:03:22;16.5;71
79467;SHT30;68933;49.726;9.226;2023-11-19T12:05:38;16.8;69
79467;SHT30;68933;49.726;9.226;2023-11-19T12:07:54;16.8;69
79467;SHT30;68933;49.726;9.226;2023-11-19T12:10:05;16.7;67
79467;SHT30;68933;49.726;9.226;2023-11-19T12:12:18;16.7;67
79467;SHT30;68933;49.726;9.226;2023-11-19T12:14:59;16.7;67
79467;SHT30;68933;49.726;9.226;2023-11-19T12:16:40;16.6;67
79467;SHT30;68933;49.726;9.226;2023-11-19T12:18:53;16.6;67
79467;SHT30;68933;49.726;9.226;2023-11-19T12:21:06;16.4;67
79467;SHT30;68933;49.726;9.226;2023-11-19T12:23:19;16.4;67
79467;SHT30;68933;49.726;9.226;2023-11-19T12:25:34;16.4;67
79467;SHT30;68933;49.726;9.226;2023-11-19T12:27:46;16.3;67
79467;SHT30;68933;49.726;9.226;2023-11-19T12:29:58;16.3;67
79467;SHT30;68933;49.726;9.226;2023-11-19T12:32:11;16.3;67
79467;SHT30;68933;49.726;9.226;2023-11-19T12:34:24;16.3;67
79467;SHT30;68933;49.726;9.226;2023-11-19T12:36:38;16.2;67
79467;SHT30;68933;49.726;9.226;2023-11-19T12:38:50;16.2;67
79467;SHT30;68933;49.726;9.226;2023-11-19T12:41:03;16.1;67
79467;SHT30;68933;49.726;9.226;2023-11-19T12:43:21;16.1;67
79467;SHT30;68933;49.726;9.226;2023-11-19T12:45:34;16.1;67
79467;SHT30;68933;49.726;9.226;2023-11-19T12:47:43;16.4;67
79467;SHT30;68933;49.726;9.226;2023-11-19T12:49:55;16.4;67
79467;SHT30;68933;49.726;9.226;2023-11-19T12:52:11;16.5;66
79467;SHT30;68933;49.726;9.226;2023-11-19T12:54:31;16.5;66
79467;SHT30;68933;49.726;9.226;2023-11-19T12:56:34;16.9;66
79467;SHT30;68933;49.726;9.226;2023-11-19T12:58:47;16.9;66
79467;SHT30;68933;49.726;9.226;2023-11-19T13:01:01;16.9;66
79467;SHT30;68933;49.726;9.226;2023-11-19T13:03:13;17.4;65
79467;SHT30;68933;49.726;9.226;2023-11-19T13:05:27;17.4;65
79467;SHT30;68933;49.726;9.226;2023-11-19T13:07:39;17.5;65
79467;SHT30;68933;49.726;9.226;2023-11-19T13:10:00;17.5;65
79467;SHT30;68933;49.726;9.226;2023-11-19T13:12:12;17.6;62
79467;SHT30;68933;49.726;9.226;2023-11-19T13:14:18;17.6;62
79467;SHT30;68933;49.726;9.226;2023-11-19T13:16:31;17.6;62
79467;SHT30;68933;49.726;9.226;2023-11-19T13:18:44;17.5;63
79467;SHT30;68933;49.726;9.226;2023-11-19T13:20:57;17.5;63
79467;SHT30;68933;49.726;9.226;2023-11-19T13:23:10;17.6;62
79467;SHT30;68933;49.726;9.226;2023-11-19T13:25:23;17.6;62
79467;SHT30;68933;49.726;9.226;2023-11-19T13:27:36;17.9;65
79467;SHT30;68933;49.726;9.226;2023-11-19T13:29:49;17.9;65
79467;SHT30;68933;49.726;9.226;2023-11-19T13:32:02;18.1;59
79467;SHT30;68933;49.726;9.226;2023-11-19T13:34:15;18.1;59
79467;SHT30;68933;49.726;9.226;2023-11-19T13:36:28;18;61
79467;SHT30;68933;49.726;9.226;2023-11-19T13:38:41;18;61
79467;SHT30;68933;49.726;9.226;2023-11-19T13:40:54;18;61
79467;SHT30;68933;49.726;9.226;2023-11-19T13:43:07;17.9;59
79467;SHT30;68933;49.726;9.226;2023-11-19T13:45:20;17.9;59
79467;SHT30;68933;49.726;9.226;2023-11-19T13:47:33;17.6;59
79467;SHT30;68933;49.726;9.226;2023-11-19T13:49:46;17.6;59
79467;SHT30;68933;49.726;9.226;2023-11-19T13:51:59;17.4;57
79467;SHT30;68933;49.726;9.226;2023-11-19T13:54:12;17.4;57
79467;SHT30;68933;49.726;9.226;2023-11-19T13:56:25;17.2;57
79467;SHT30;68933;49.726;9.226;2023-11-19T13:58:38;17.2;57
79467;SHT30;68933;49.726;9.226;2023-11-19T14:00:51;16.9;58
79467;SHT30;68933;49.726;9.226;2023-11-19T14:03:04;16.9;58
79467;SHT30;68933;49.726;9.226;2023-11-19T14:05:17;16.9;58
79467;SHT30;68933;49.726;9.226;2023-11-19T14:07:30;16.8;58
79467;SHT30;68933;49.726;9.226;2023-11-19T14:09:43;16.8;58
79467;SHT30;68933;49.726;9.226;2023-11-19T14:11:56;16.8;58
79467;SHT30;68933;49.726;9.226;2023-11-19T14:14:09;16.8;58
79467;SHT30;68933;49.726;9.226;2023-11-19T14:16:25;16.7;58
79467;SHT30;68933;49.726;9.226;2023-11-19T14:18:35;16.7;58
79467;SHT30;68933;49.726;9.226;2023-11-19T14:20:48;16.6;57
79467;SHT30;68933;49.726;9.226;2023-11-19T14:23:01;16.6;57
79467;SHT30;68933;49.726;9.226;2023-11-19T14:25:15;16.6;57
79467;SHT30;68933;49.726;9.226;2023-11-19T14:27:27;16.6;57
79467;SHT30;68933;49.726;9.226;2023-11-19T14:29:40;16.6;57
79467;SHT30;68933;49.726;9.226;2023-11-19T14:31:53;16.4;58
79467;SHT30;68933;49.726;9.226;2023-11-19T14:34:06;16.4;58
79467;SHT30;68933;49.726;9.226;2023-11-19T14:36:19;16.4;58
79467;SHT30;68933;49.726;9.226;2023-11-19T14:38:32;16.4;57
79467;SHT30;68933;49.726;9.226;2023-11-19T14:40:45;16.4;57
79467;SHT30;68933;49.726;9.226;2023-11-19T14:42:58;16.3;57
79467;SHT30;68933;49.726;9.226;2023-11-19T14:45:11;16.3;57
79467;SHT30;68933;49.726;9.226;2023-11-19T14:47:24;16.2;57
79467;SHT30;68933;49.726;9.226;2023-11-19T14:49:37;16.2;57
79467;SHT30;68933;49.726;9.226;2023-11-19T14:51:50;16.2;57
79467;SHT30;68933;49.726;9.226;2023-11-19T14:54:03;16.2;58
79467;SHT30;68933;49.726;9.226;2023-11-19T14:56:16;16.2;58
79467;SHT30;68933;49.726;9.226;2023-11-19T14:58:29;16.1;57
79467;SHT30;68933;49.726;9.226;2023-11-19T15:00:42;16.1;57
79467;SHT30;68933;49.726;9.226;2023-11-19T15:02:55;16.1;57
79467;SHT30;68933;49.726;9.226;2023-11-19T15:05:08;16;58